createdAt,value
2023-05-16T00:03:04.748Z,100330.06
2023-05-16T00:06:08.478Z,100341.06
2023-05-16T00:09:11.524Z,100342.84
2023-05-16T00:12:14.558Z,100342.03
2023-05-16T00:15:17.980Z,100347.00
2023-05-16T00:18:22.547Z,100353.88
2023-05-16T00:21:26.087Z,100351.94
2023-05-16T00:24:29.097Z,100358.16
2023-05-16T00:27:32.441Z,100355.84
2023-05-16T00:30:35.621Z,100355.94
2023-05-16T00:33:39.928Z,100351.13
2023-05-16T00:36:43.202Z,100362.72
2023-05-16T00:39:46.172Z,100356.38
2023-05-16T00:42:49.587Z,100352.38
2023-05-16T00:45:52.739Z,100352.53
2023-05-16T00:48:57.108Z,100354.75
2023-05-16T00:52:02.861Z,100351.72
2023-05-16T00:55:07.631Z,100376.25
2023-05-16T00:58:12.574Z,100368.38
2023-05-16T01:01:15.735Z,100368.78
2023-05-16T01:04:20.598Z,100373.88
2023-05-16T01:07:23.804Z,100374.00
2023-05-16T01:10:35.154Z,100381.44
2023-05-16T01:13:48.079Z,100384.19
2023-05-16T01:17:01.069Z,100377.84
2023-05-16T01:20:15.685Z,100381.81
2023-05-16T01:23:32.614Z,100381.41
2023-05-16T01:26:37.916Z,100383.72
2023-05-16T01:29:42.460Z,100393.75
2023-05-16T01:32:46.980Z,100400.47
2023-05-16T01:36:00.720Z,100403.59
2023-05-16T01:39:10.608Z,100412.09
2023-05-16T01:42:17.112Z,100399.09
2023-05-16T01:45:26.108Z,100414.94
2023-05-16T01:48:36.934Z,100419.97
2023-05-16T01:51:42.531Z,100429.28
2023-05-16T01:54:49.678Z,100436.94
2023-05-16T01:57:55.237Z,100443.50
2023-05-16T02:01:03.826Z,100439.38
2023-05-16T02:04:06.882Z,100447.34
2023-05-16T02:07:11.807Z,100447.44
2023-05-16T02:10:15.078Z,100450.13
2023-05-16T02:13:19.557Z,100447.78
2023-05-16T02:16:22.845Z,100457.50
2023-05-16T02:19:25.978Z,100467.25
2023-05-16T02:22:28.997Z,100474.63
2023-05-16T02:25:32.007Z,100478.44
2023-05-16T02:28:36.933Z,100479.84
2023-05-16T02:31:40.091Z,100486.91
2023-05-16T02:34:43.184Z,100489.19
2023-05-16T02:37:46.486Z,100488.97
2023-05-16T02:40:49.961Z,100490.06
2023-05-16T02:43:54.563Z,100503.69
2023-05-16T02:46:57.529Z,100502.03
2023-05-16T02:50:00.670Z,100511.31
2023-05-16T02:53:03.954Z,100515.59
2023-05-16T02:56:07.340Z,100510.38
2023-05-16T02:59:14.323Z,100510.59
2023-05-16T03:02:17.427Z,100509.66
2023-05-16T03:05:20.499Z,100522.13
2023-05-16T03:08:23.611Z,100521.97
2023-05-16T03:11:26.856Z,100526.38
2023-05-16T03:15:19.545Z,100529.94
2023-05-16T03:18:22.775Z,100536.47
2023-05-16T03:21:25.991Z,100535.53
2023-05-16T03:24:29.069Z,100541.09
2023-05-16T03:27:32.189Z,100543.34
2023-05-16T03:30:37.281Z,100541.41
2023-05-16T03:33:40.349Z,100547.03
2023-05-16T03:36:43.801Z,100548.41
2023-05-16T03:39:46.857Z,100556.19
2023-05-16T03:42:50.177Z,100553.63
2023-05-16T03:45:54.735Z,100550.97
2023-05-16T03:48:57.796Z,100552.59
2023-05-16T03:52:01.043Z,100554.94
2023-05-16T03:55:05.955Z,100557.06
2023-05-16T03:58:09.008Z,100554.84
2023-05-16T04:01:13.598Z,100562.75
2023-05-16T04:04:16.538Z,100565.84
2023-05-16T04:07:20.815Z,100566.56
2023-05-16T04:10:25.872Z,100573.09
2023-05-16T04:13:29.046Z,100574.97
2023-05-16T04:16:33.543Z,100583.41
2023-05-16T04:19:39.295Z,100588.94
2023-05-16T04:22:42.585Z,100594.38
2023-05-16T04:25:46.278Z,100599.97
2023-05-16T04:28:49.383Z,100602.59
2023-05-16T04:31:55.167Z,100606.84
2023-05-16T04:34:58.468Z,100607.66
2023-05-16T04:38:01.945Z,100604.44
2023-05-16T04:41:05.111Z,100617.94
2023-05-16T04:44:08.804Z,100619.50
2023-05-16T04:47:13.351Z,100630.00
2023-05-16T04:50:18.094Z,100630.47
2023-05-16T04:53:21.304Z,100633.56
2023-05-16T04:56:24.290Z,100639.72
2023-05-16T04:59:27.268Z,100640.28
2023-05-16T05:02:31.728Z,100647.53
2023-05-16T05:05:35.549Z,100658.59
2023-05-16T05:08:39.003Z,100673.38
2023-05-16T05:11:42.334Z,100671.66
2023-05-16T05:14:45.412Z,100670.34
2023-05-16T05:17:49.868Z,100674.56
2023-05-16T05:20:56.928Z,100688.75
2023-05-16T05:24:00.132Z,100702.81
2023-05-16T05:27:06.841Z,100710.19
2023-05-16T05:30:11.418Z,100701.03
2023-05-16T05:33:18.879Z,100701.78
2023-05-16T05:36:22.195Z,100711.91
2023-05-16T05:39:25.919Z,100719.59
2023-05-16T05:42:31.834Z,100723.28
2023-05-16T05:45:34.881Z,100733.00
2023-05-16T05:48:39.249Z,100729.75
2023-05-16T05:51:42.451Z,100731.03
2023-05-16T05:54:45.538Z,100741.22
2023-05-16T05:57:48.580Z,100738.28
2023-05-16T06:00:52.082Z,100741.59
2023-05-16T06:03:57.791Z,100743.94
2023-05-16T06:07:01.464Z,100747.69
2023-05-16T06:10:06.108Z,100743.50
2023-05-16T06:13:09.338Z,100748.38
2023-05-16T06:16:12.502Z,100756.69
2023-05-16T06:19:17.021Z,100756.59
2023-05-16T06:22:20.153Z,100758.19
2023-05-16T06:25:23.484Z,100762.13
2023-05-16T06:28:26.671Z,100757.16
2023-05-16T06:31:29.944Z,100767.91
2023-05-16T06:50:41.370Z,100799.75
2023-05-16T06:53:44.538Z,100798.50
2023-05-16T06:56:47.583Z,100804.47
2023-05-16T06:59:50.694Z,100806.31
2023-05-16T07:02:54.178Z,100810.19
2023-05-16T07:05:58.695Z,100815.97
2023-05-16T07:09:02.304Z,100823.56
2023-05-16T07:12:06.736Z,100822.34
2023-05-16T07:15:11.414Z,100819.28
2023-05-16T07:18:15.850Z,100825.72
2023-05-16T07:21:20.688Z,100827.41
2023-05-16T07:24:23.769Z,100830.72
2023-05-16T07:27:26.877Z,100826.66
2023-05-16T07:30:30.607Z,100838.53
2023-05-16T07:33:33.846Z,100840.25
2023-05-16T07:36:38.636Z,100832.81
2023-05-16T07:39:41.709Z,100832.66
2023-05-16T07:42:44.875Z,100831.47
2023-05-16T07:45:48.028Z,100837.28
2023-05-16T07:48:53.432Z,100841.91
2023-05-16T07:51:57.931Z,100841.72
2023-05-16T07:55:03.582Z,100835.25
2023-05-16T07:58:06.836Z,100841.13
2023-05-16T08:01:10.064Z,100844.94
2023-05-16T08:04:13.178Z,100845.56
2023-05-16T08:07:20.514Z,100861.59
2023-05-16T08:10:24.362Z,100857.63
2023-05-16T08:13:28.041Z,100873.38
2023-05-16T08:16:31.275Z,100881.16
2023-05-16T08:19:36.169Z,100890.81
2023-05-16T08:22:40.675Z,100892.00
2023-05-16T08:25:43.763Z,100894.94
2023-05-16T08:28:47.286Z,100896.50
2023-05-16T08:31:50.635Z,100898.53
2023-05-16T08:34:53.802Z,100899.75
2023-05-16T08:37:58.215Z,100905.22
2023-05-16T08:41:01.582Z,100909.19
2023-05-16T08:44:05.470Z,100902.63
2023-05-16T08:47:14.217Z,100905.41
2023-05-16T08:50:20.112Z,100905.72
2023-05-16T08:53:34.086Z,100897.53
2023-05-16T08:56:39.038Z,100902.88
2023-05-16T08:59:42.915Z,100894.59
2023-05-16T09:02:46.924Z,100901.69
2023-05-16T09:05:50.697Z,100891.28
2023-05-16T09:09:03.689Z,100897.31
2023-05-16T09:12:07.974Z,100897.63
2023-05-16T09:15:12.679Z,100900.25
2023-05-16T09:18:19.286Z,100912.84
2023-05-16T09:27:43.312Z,100909.59
2023-05-16T09:31:52.072Z,100916.09
2023-05-16T09:35:45.270Z,100906.84
2023-05-16T09:38:54.457Z,100919.31
2023-05-16T09:42:22.343Z,100925.50
2023-05-16T09:46:07.555Z,100925.03
2023-05-16T09:49:53.714Z,100933.78
2023-05-16T09:53:30.727Z,100935.28
2023-05-16T09:56:35.001Z,100937.19
2023-05-16T10:00:17.817Z,100936.75
2023-05-16T10:03:34.949Z,100938.19
2023-05-16T10:06:55.026Z,100945.72
2023-05-16T10:10:20.892Z,100944.94
2023-05-16T10:13:35.552Z,100952.31
2023-05-16T10:16:51.570Z,100953.03
2023-05-16T10:20:27.474Z,100950.25
2023-05-16T10:23:49.593Z,100954.94
2023-05-16T10:27:44.140Z,100945.59
2023-05-16T10:31:55.765Z,100939.09
2023-05-16T10:35:04.782Z,100953.31
2023-05-16T10:38:20.600Z,100954.31
2023-05-16T10:41:28.615Z,100956.88
2023-05-16T10:45:01.872Z,100964.59
2023-05-16T10:48:52.867Z,100957.75
2023-05-16T10:52:21.642Z,100953.50
2023-05-16T10:55:34.436Z,100958.19
2023-05-16T10:58:58.402Z,100959.84
2023-05-16T11:02:31.312Z,100963.00
2023-05-16T11:05:45.100Z,100965.50
2023-05-16T11:09:24.198Z,100996.03
2023-05-16T11:19:14.935Z,100998.25
2023-05-16T11:22:30.546Z,101003.34
2023-05-16T11:25:42.251Z,100997.28
2023-05-16T11:28:50.197Z,100999.59
2023-05-16T11:31:56.780Z,100980.38
2023-05-16T11:35:00.584Z,100984.44
2023-05-16T11:38:03.678Z,100984.38
2023-05-16T11:41:10.112Z,100984.72
2023-05-16T11:44:15.572Z,100990.16
2023-05-16T11:47:22.080Z,100990.97
2023-05-16T11:50:25.106Z,100992.34
2023-05-16T11:53:31.030Z,100996.19
2023-05-16T11:56:36.914Z,100993.84
2023-05-16T11:59:40.186Z,100988.13
2023-05-16T12:02:43.734Z,100985.84
2023-05-16T12:05:54.689Z,100994.59
2023-05-16T12:08:57.828Z,100991.78
2023-05-16T12:12:07.230Z,100981.84
2023-05-16T12:15:12.335Z,100990.72
2023-05-16T12:18:16.981Z,100998.72
2023-05-16T12:21:20.508Z,101003.00
2023-05-16T12:24:30.701Z,101007.25
2023-05-16T12:27:35.323Z,101010.84
2023-05-16T12:30:42.611Z,101020.59
2023-05-16T12:33:46.945Z,101014.19
2023-05-16T12:36:55.231Z,101020.00
2023-05-16T12:40:01.510Z,101026.88
2023-05-16T12:43:14.362Z,101024.88
2023-05-16T12:46:17.930Z,101025.59
2023-05-16T12:49:22.732Z,101021.41
2023-05-16T12:52:30.299Z,101017.59
2023-05-16T12:55:33.414Z,101003.88
2023-05-16T12:58:38.072Z,100999.72
2023-05-16T13:01:42.060Z,100989.50
2023-05-16T13:04:45.341Z,101000.25
2023-05-16T13:07:48.473Z,100993.84
2023-05-16T13:10:51.823Z,100990.44
2023-05-16T13:13:57.584Z,100990.59
2023-05-16T13:17:00.813Z,100985.94
2023-05-16T13:20:08.354Z,100992.56
2023-05-16T13:23:11.424Z,100992.22
2023-05-16T13:26:14.461Z,100978.53
2023-05-16T13:29:19.192Z,100979.09
2023-05-16T13:32:22.428Z,100976.69
2023-05-16T13:35:26.614Z,100977.09
2023-05-16T13:38:29.828Z,100977.53
2023-05-16T13:41:37.658Z,100982.00
2023-05-16T13:44:44.835Z,100977.75
2023-05-16T13:47:48.460Z,100993.88
2023-05-16T13:50:52.004Z,100989.81
2023-05-16T13:53:55.306Z,101000.75
2023-05-16T13:56:58.531Z,101008.03
2023-05-16T14:00:31.297Z,101006.34
2023-05-16T14:03:28.514Z,100996.94
2023-05-16T14:06:32.040Z,101006.88
2023-05-16T14:09:39.645Z,100998.88
2023-05-16T14:12:42.645Z,101002.75
2023-05-16T14:15:47.491Z,101002.91
2023-05-16T14:18:51.638Z,101012.19
2023-05-16T14:21:55.030Z,101010.38
2023-05-16T14:25:01.380Z,101015.03
2023-05-16T14:28:05.220Z,101006.31
2023-05-16T14:31:09.785Z,101012.28
2023-05-16T14:34:12.972Z,101016.16
2023-05-16T14:37:20.277Z,101014.91
2023-05-16T14:40:23.581Z,101011.63
2023-05-16T14:43:26.628Z,101013.59
2023-05-16T14:46:31.082Z,101009.59
2023-05-16T14:49:38.186Z,101011.28
2023-05-16T14:52:46.931Z,100994.16
2023-05-16T14:55:52.787Z,100988.47
2023-05-16T14:58:56.342Z,100986.69
2023-05-16T15:02:01.019Z,100992.59
2023-05-16T15:05:06.675Z,101002.59
2023-05-16T15:08:09.726Z,101008.84
2023-05-16T15:11:13.236Z,101004.56
2023-05-16T15:14:16.260Z,101011.88
2023-05-16T15:17:24.485Z,101006.31
2023-05-16T15:20:28.302Z,101004.38
2023-05-16T15:23:31.744Z,101007.19
2023-05-16T15:26:39.687Z,100996.13
2023-05-16T15:29:42.769Z,100992.91
2023-05-16T15:32:48.314Z,101008.25
2023-05-16T15:35:53.949Z,101009.38
2023-05-16T15:38:57.078Z,101019.34
2023-05-16T15:42:09.135Z,101014.91
2023-05-16T15:45:13.725Z,101014.25
2023-05-16T15:48:19.551Z,101017.59
2023-05-16T15:51:28.352Z,101013.84
2023-05-16T15:54:31.466Z,101000.97
2023-05-16T15:57:37.832Z,101004.56
2023-05-16T16:00:41.138Z,101008.13
2023-05-16T16:03:46.358Z,101018.81
2023-05-16T16:06:52.471Z,101014.66
2023-05-16T16:09:55.702Z,101012.84
2023-05-16T16:13:03.861Z,101014.38
2023-05-16T16:16:08.066Z,101014.63
2023-05-16T16:19:12.593Z,101007.13
2023-05-16T16:22:16.831Z,101017.25
2023-05-16T16:25:20.057Z,101006.31
2023-05-16T16:28:23.297Z,101019.88
2023-05-16T16:31:33.693Z,101020.59
2023-05-16T16:34:38.113Z,101009.41
2023-05-16T16:38:02.105Z,101008.56
2023-05-16T16:41:08.307Z,101012.41
2023-05-16T16:44:12.174Z,101008.41
2023-05-16T16:47:15.758Z,101003.53
2023-05-16T16:50:20.502Z,101000.63
2023-05-16T16:53:23.612Z,100998.53
2023-05-16T16:56:27.990Z,100996.47
2023-05-16T16:59:31.031Z,101000.44
2023-05-16T17:02:34.098Z,101013.16
2023-05-16T17:05:42.382Z,101000.81
2023-05-16T17:08:48.087Z,101001.28
2023-05-16T17:11:51.645Z,101003.47
2023-05-16T17:14:56.237Z,101009.25
2023-05-16T17:18:00.658Z,101003.56
2023-05-16T17:21:05.305Z,101002.59
2023-05-16T17:24:09.566Z,101005.91
2023-05-16T17:27:13.411Z,101005.97
2023-05-16T17:30:20.023Z,101024.06
2023-05-16T17:33:22.992Z,101020.16
2023-05-16T17:36:27.471Z,101030.31
2023-05-16T17:39:32.230Z,101040.72
2023-05-16T17:42:35.420Z,101043.69
2023-05-16T17:45:47.021Z,101047.78
2023-05-16T17:48:50.411Z,101046.03
2023-05-16T17:51:58.127Z,101057.16
2023-05-16T17:55:03.927Z,101063.63
2023-05-16T17:58:09.568Z,101064.94
2023-05-16T18:01:20.553Z,101065.22
2023-05-16T18:04:23.833Z,101072.13
2023-05-16T18:07:28.629Z,101076.75
2023-05-16T18:10:43.782Z,101079.41
2023-05-16T18:14:07.984Z,101085.88
2023-05-16T18:22:04.056Z,101105.06
2023-05-16T18:25:26.664Z,101121.03
2023-05-16T18:28:30.340Z,101115.66
2023-05-16T18:31:41.056Z,101132.69
2023-05-16T18:34:45.793Z,101124.84
2023-05-16T18:37:56.633Z,101126.63
2023-05-16T18:41:13.126Z,101124.13
2023-05-16T18:44:18.136Z,101126.28
2023-05-16T18:47:39.167Z,101130.31
2023-05-16T18:50:52.119Z,101133.63
2023-05-16T18:53:59.779Z,101144.66
2023-05-16T18:57:18.668Z,101151.56
2023-05-16T19:00:41.421Z,101153.56
2023-05-16T19:03:52.606Z,101167.69
2023-05-16T19:06:56.458Z,101178.34
2023-05-16T19:10:04.963Z,101171.00
2023-05-16T19:13:09.496Z,101182.97
2023-05-16T19:16:12.920Z,101183.94
2023-05-16T19:19:16.235Z,101196.91
2023-05-16T19:22:20.595Z,101202.28
2023-05-16T19:25:26.475Z,101206.09
2023-05-16T19:28:31.076Z,101208.25
2023-05-16T19:31:34.118Z,101215.19
2023-05-16T19:34:37.650Z,101214.50
2023-05-16T19:37:40.998Z,101212.84
2023-05-16T19:40:47.042Z,101223.41
2023-05-16T19:43:52.065Z,101222.75
2023-05-16T19:46:55.569Z,101228.22
2023-05-16T19:49:58.540Z,101234.91
2023-05-16T19:53:01.716Z,101238.81
2023-05-16T19:56:11.920Z,101225.22
2023-05-16T19:59:16.304Z,101235.44
2023-05-16T20:02:23.617Z,101235.03
2023-05-16T20:05:27.952Z,101237.34
2023-05-16T20:08:31.154Z,101246.63
2023-05-16T20:11:34.500Z,101242.38
2023-05-16T20:14:39.093Z,101244.25
2023-05-16T20:17:42.552Z,101252.41
2023-05-16T20:20:45.865Z,101247.19
2023-05-16T20:23:49.086Z,101250.50
2023-05-16T20:26:52.126Z,101253.31
2023-05-16T20:29:57.104Z,101253.41
2023-05-16T20:33:00.714Z,101242.59
2023-05-16T20:36:03.862Z,101256.88
2023-05-16T20:39:08.938Z,101264.28
2023-05-16T20:42:12.579Z,101269.38
2023-05-16T20:45:18.467Z,101268.00
2023-05-16T20:48:21.760Z,101262.81
2023-05-16T20:51:24.982Z,101262.19
2023-05-16T20:54:28.035Z,101273.75
2023-05-16T20:57:31.201Z,101260.91
2023-05-16T21:00:35.776Z,101270.06
2023-05-16T21:03:38.924Z,101268.38
2023-05-16T21:06:42.252Z,101271.28
2023-05-16T21:09:45.521Z,101269.63
2023-05-16T21:12:50.096Z,101277.44
2023-05-16T21:15:55.146Z,101282.47
2023-05-16T21:19:01.520Z,101283.41
2023-05-16T21:22:05.401Z,101290.03
2023-05-16T21:25:09.392Z,101288.34
2023-05-16T21:28:12.403Z,101291.16
2023-05-16T21:31:17.014Z,101285.00
2023-05-16T21:34:20.068Z,101289.66
2023-05-16T21:37:23.142Z,101288.72
2023-05-16T21:40:26.425Z,101287.72
2023-05-16T21:43:29.392Z,101284.47
2023-05-16T21:46:34.082Z,101293.28
2023-05-16T21:49:37.179Z,101295.03
2023-05-16T21:52:40.584Z,101288.44
2023-05-16T21:55:43.843Z,101287.72
2023-05-16T21:58:46.974Z,101303.50
2023-05-16T22:01:51.587Z,101299.97
2023-05-16T22:04:54.608Z,101293.84
2023-05-16T22:07:57.646Z,101306.31
2023-05-16T22:11:00.842Z,101298.78
2023-05-16T22:14:03.876Z,101293.72
2023-05-16T22:17:08.232Z,101298.78
2023-05-16T22:20:12.308Z,101301.94
2023-05-16T22:23:16.036Z,101296.72
2023-05-16T22:26:19.151Z,101294.84
2023-05-16T22:29:22.241Z,101293.09
2023-05-16T22:32:27.613Z,101298.47
2023-05-16T22:35:32.015Z,101307.47
2023-05-16T22:38:35.294Z,101305.16
2023-05-16T22:41:38.425Z,101305.72
2023-05-16T22:44:44.389Z,101300.59
2023-05-16T22:47:48.767Z,101308.91
2023-05-16T22:50:51.764Z,101313.06
2023-05-16T22:53:54.715Z,101311.97
2023-05-16T22:56:57.768Z,101316.72
2023-05-16T23:00:01.041Z,101319.00
2023-05-16T23:03:06.389Z,101316.00
2023-05-16T23:06:09.769Z,101317.66
2023-05-16T23:09:13.028Z,101323.56
2023-05-16T23:12:16.249Z,101323.97
2023-05-16T23:15:22.364Z,101316.50
2023-05-16T23:18:26.970Z,101325.09
2023-05-16T23:21:30.183Z,101324.31
2023-05-16T23:24:33.318Z,101323.09
2023-05-16T23:27:36.734Z,101322.44
2023-05-16T23:30:40.321Z,101324.28
2023-05-16T23:33:44.872Z,101329.50
2023-05-16T23:36:47.895Z,101332.00
2023-05-16T23:39:50.987Z,101325.50
2023-05-16T23:42:53.931Z,101327.03
2023-05-16T23:45:56.910Z,101327.03
2023-05-16T23:49:01.201Z,101332.88
2023-05-16T23:52:05.970Z,101335.91
2023-05-16T23:55:10.227Z,101342.38
2023-05-16T23:58:13.304Z,101338.97
